sensor_id;sensor_type;location;lat;lon;timestamp;pressure;altitude;pressure_sealevel;temperature;humidity
68476;BME280;55464;48.266;14.188;2023-07-29T00:00:37;97397.88;;;26.42;46.03
68476;BME280;55464;48.266;14.188;2023-07-29T00:03:03;97406.44;;;26.61;45.85
68476;BME280;55464;48.266;14.188;2023-07-29T00:05:28;97402.00;;;26.73;45.39
68476;BME280;55464;48.266;14.188;2023-07-29T00:07:53;97402.47;;;26.71;45.41
68476;BME280;55464;48.266;14.188;2023-07-29T00:10:19;97405.81;;;26.79;45.61
68476;BME280;55464;48.266;14.188;2023-07-29T00:12:44;97412.75;;;26.87;46.01
68476;BME280;55464;48.266;14.188;2023-07-29T00:15:11;97402.41;;;26.93;45.83
68476;BME280;55464;48.266;14.188;2023-07-29T00:17:36;97399.13;;;26.95;45.53
68476;BME280;55464;48.266;14.188;2023-07-29T00:20:02;97409.50;;;26.98;45.44
68476;BME280;55464;48.266;14.188;2023-07-29T00:22:28;97391.09;;;26.93;45.91
68476;BME280;55464;48.266;14.188;2023-07-29T00:24:53;97384.78;;;26.89;45.71
68476;BME280;55464;48.266;14.188;2023-07-29T00:27:20;97387.59;;;26.80;45.77
68476;BME280;55464;48.266;14.188;2023-07-29T00:29:46;97386.63;;;26.74;46.13
68476;BME280;55464;48.266;14.188;2023-07-29T00:32:12;97383.72;;;26.65;45.72
68476;BME280;55464;48.266;14.188;2023-07-29T00:34:37;97398.06;;;26.70;45.64
68476;BME280;55464;48.266;14.188;2023-07-29T00:37:02;97395.59;;;26.59;45.70
68476;BME280;55464;48.266;14.188;2023-07-29T00:39:28;97399.59;;;26.62;46.11
68476;BME280;55464;48.266;14.188;2023-07-29T00:41:53;97398.84;;;26.49;45.90
68476;BME280;55464;48.266;14.188;2023-07-29T00:44:19;97389.13;;;26.50;46.15
68476;BME280;55464;48.266;14.188;2023-07-29T00:46:45;97396.59;;;26.44;45.88
68476;BME280;55464;48.266;14.188;2023-07-29T00:49:11;97399.84;;;26.55;46.24
68476;BME280;55464;48.266;14.188;2023-07-29T00:51:36;97401.38;;;26.56;46.14
68476;BME280;55464;48.266;14.188;2023-07-29T00:54:02;97394.50;;;26.35;46.88
68476;BME280;55464;48.266;14.188;2023-07-29T00:56:27;97389.91;;;26.50;46.60
68476;BME280;55464;48.266;14.188;2023-07-29T00:58:54;97400.28;;;26.53;46.85
68476;BME280;55464;48.266;14.188;2023-07-29T01:01:27;97402.84;;;26.60;46.56
68476;BME280;55464;48.266;14.188;2023-07-29T01:03:52;97386.81;;;26.57;46.96
68476;BME280;55464;48.266;14.188;2023-07-29T01:06:26;97394.97;;;26.55;46.69
68476;BME280;55464;48.266;14.188;2023-07-29T01:09:04;97408.00;;;26.53;46.85
68476;BME280;55464;48.266;14.188;2023-07-29T01:14:21;97393.19;;;26.71;47.12
68476;BME280;55464;48.266;14.188;2023-07-29T01:16:53;97400.44;;;26.72;47.17
68476;BME280;55464;48.266;14.188;2023-07-29T01:22:08;97396.34;;;26.73;47.32
68476;BME280;55464;48.266;14.188;2023-07-29T01:24:34;97393.41;;;26.54;47.25
68476;BME280;55464;48.266;14.188;2023-07-29T01:26:59;97396.56;;;26.56;47.27
68476;BME280;55464;48.266;14.188;2023-07-29T01:29:27;97401.09;;;26.32;47.91
68476;BME280;55464;48.266;14.188;2023-07-29T01:31:54;97389.41;;;26.42;47.75
68476;BME280;55464;48.266;14.188;2023-07-29T01:34:48;97386.75;;;26.48;47.50
68476;BME280;55464;48.266;14.188;2023-07-29T01:37:19;97384.94;;;26.54;47.60
68476;BME280;55464;48.266;14.188;2023-07-29T01:39:49;97381.84;;;26.62;47.12
68476;BME280;55464;48.266;14.188;2023-07-29T01:42:15;97370.09;;;26.63;47.11
68476;BME280;55464;48.266;14.188;2023-07-29T01:44:42;97382.56;;;26.53;47.30
68476;BME280;55464;48.266;14.188;2023-07-29T01:47:08;97381.00;;;26.61;47.40
68476;BME280;55464;48.266;14.188;2023-07-29T01:49:33;97383.94;;;26.70;47.25
68476;BME280;55464;48.266;14.188;2023-07-29T01:51:59;97369.13;;;26.66;47.01
68476;BME280;55464;48.266;14.188;2023-07-29T01:54:24;97388.31;;;26.71;47.23
68476;BME280;55464;48.266;14.188;2023-07-29T01:56:50;97386.03;;;26.57;47.99
68476;BME280;55464;48.266;14.188;2023-07-29T01:59:16;97387.81;;;26.64;47.33
68476;BME280;55464;48.266;14.188;2023-07-29T02:01:42;97372.66;;;26.57;47.57
68476;BME280;55464;48.266;14.188;2023-07-29T02:04:08;97375.72;;;26.41;47.29
68476;BME280;55464;48.266;14.188;2023-07-29T02:06:34;97384.41;;;26.25;48.05
68476;BME280;55464;48.266;14.188;2023-07-29T02:08:59;97393.81;;;26.21;48.24
68476;BME280;55464;48.266;14.188;2023-07-29T02:11:25;97379.88;;;26.27;47.81
68476;BME280;55464;48.266;14.188;2023-07-29T02:13:53;97386.09;;;26.22;47.78
68476;BME280;55464;48.266;14.188;2023-07-29T02:16:20;97371.91;;;26.35;47.57
68476;BME280;55464;48.266;14.188;2023-07-29T02:18:45;97371.56;;;25.89;48.08
68476;BME280;55464;48.266;14.188;2023-07-29T02:21:11;97377.97;;;26.02;47.71
68476;BME280;55464;48.266;14.188;2023-07-29T02:23:36;97375.94;;;26.02;47.89
68476;BME280;55464;48.266;14.188;2023-07-29T02:26:01;97373.34;;;26.17;47.09
68476;BME280;55464;48.266;14.188;2023-07-29T02:28:27;97376.31;;;26.14;46.73
68476;BME280;55464;48.266;14.188;2023-07-29T02:31:15;97381.63;;;26.12;47.13
68476;BME280;55464;48.266;14.188;2023-07-29T02:33:41;97377.13;;;26.14;46.56
68476;BME280;55464;48.266;14.188;2023-07-29T02:36:07;97384.75;;;26.27;46.54
68476;BME280;55464;48.266;14.188;2023-07-29T02:38:32;97381.84;;;26.17;46.41
68476;BME280;55464;48.266;14.188;2023-07-29T02:40:57;97383.69;;;26.11;46.54
68476;BME280;55464;48.266;14.188;2023-07-29T02:43:23;97374.31;;;26.14;46.32
68476;BME280;55464;48.266;14.188;2023-07-29T02:45:48;97377.16;;;26.01;47.16
68476;BME280;55464;48.266;14.188;2023-07-29T02:48:13;97372.31;;;26.02;46.93
68476;BME280;55464;48.266;14.188;2023-07-29T02:50:39;97381.50;;;25.80;47.53
68476;BME280;55464;48.266;14.188;2023-07-29T02:53:04;97379.88;;;25.70;47.85
68476;BME280;55464;48.266;14.188;2023-07-29T02:55:30;97370.09;;;25.84;47.41
68476;BME280;55464;48.266;14.188;2023-07-29T02:57:55;97379.91;;;25.92;47.21
68476;BME280;55464;48.266;14.188;2023-07-29T03:00:21;97384.22;;;25.97;46.87
68476;BME280;55464;48.266;14.188;2023-07-29T03:02:46;97376.31;;;25.79;47.08
68476;BME280;55464;48.266;14.188;2023-07-29T03:05:11;97383.75;;;25.98;47.07
68476;BME280;55464;48.266;14.188;2023-07-29T03:07:37;97375.97;;;25.90;47.38
68476;BME280;55464;48.266;14.188;2023-07-29T03:10:03;97381.19;;;26.13;46.34
68476;BME280;55464;48.266;14.188;2023-07-29T03:12:28;97379.06;;;26.04;46.60
68476;BME280;55464;48.266;14.188;2023-07-29T03:14:54;97392.22;;;25.98;46.69
68476;BME280;55464;48.266;14.188;2023-07-29T03:17:19;97385.28;;;26.12;46.49
68476;BME280;55464;48.266;14.188;2023-07-29T03:19:45;97382.19;;;26.19;46.57
68476;BME280;55464;48.266;14.188;2023-07-29T03:22:10;97384.66;;;26.17;46.80
68476;BME280;55464;48.266;14.188;2023-07-29T03:24:35;97393.03;;;26.21;46.68
68476;BME280;55464;48.266;14.188;2023-07-29T03:27:01;97390.97;;;26.21;46.53
68476;BME280;55464;48.266;14.188;2023-07-29T03:29:26;97377.03;;;26.27;46.17
68476;BME280;55464;48.266;14.188;2023-07-29T03:31:51;97387.38;;;26.21;46.77
68476;BME280;55464;48.266;14.188;2023-07-29T03:34:17;97386.75;;;26.26;46.25
68476;BME280;55464;48.266;14.188;2023-07-29T03:36:42;97388.66;;;26.29;46.25
68476;BME280;55464;48.266;14.188;2023-07-29T03:39:08;97401.00;;;26.22;46.78
68476;BME280;55464;48.266;14.188;2023-07-29T03:41:33;97406.66;;;26.22;46.85
68476;BME280;55464;48.266;14.188;2023-07-29T03:43:59;97397.59;;;26.28;46.49
68476;BME280;55464;48.266;14.188;2023-07-29T03:46:24;97407.16;;;26.21;46.48
68476;BME280;55464;48.266;14.188;2023-07-29T03:48:50;97406.09;;;26.06;47.10
68476;BME280;55464;48.266;14.188;2023-07-29T03:51:15;97406.41;;;26.08;47.12
68476;BME280;55464;48.266;14.188;2023-07-29T03:53:41;97416.22;;;26.16;47.30
68476;BME280;55464;48.266;14.188;2023-07-29T03:56:07;97424.13;;;26.08;47.16
68476;BME280;55464;48.266;14.188;2023-07-29T03:58:33;97421.44;;;26.04;47.27
68476;BME280;55464;48.266;14.188;2023-07-29T04:00:58;97418.94;;;26.07;47.14
68476;BME280;55464;48.266;14.188;2023-07-29T04:03:24;97430.66;;;26.18;47.27
68476;BME280;55464;48.266;14.188;2023-07-29T04:05:49;97435.97;;;26.16;47.12
68476;BME280;55464;48.266;14.188;2023-07-29T04:08:15;97438.56;;;26.10;47.48
68476;BME280;55464;48.266;14.188;2023-07-29T04:10:40;97420.84;;;26.10;47.53
68476;BME280;55464;48.266;14.188;2023-07-29T04:13:05;97418.34;;;26.12;47.43
68476;BME280;55464;48.266;14.188;2023-07-29T04:15:31;97430.84;;;26.23;47.49
68476;BME280;55464;48.266;14.188;2023-07-29T04:17:57;97428.53;;;26.31;47.17
68476;BME280;55464;48.266;14.188;2023-07-29T04:20:22;97424.09;;;26.21;47.38
68476;BME280;55464;48.266;14.188;2023-07-29T04:22:47;97428.28;;;26.16;47.66
68476;BME280;55464;48.266;14.188;2023-07-29T04:25:13;97438.41;;;26.27;47.69
68476;BME280;55464;48.266;14.188;2023-07-29T04:27:38;97441.56;;;26.29;47.06
68476;BME280;55464;48.266;14.188;2023-07-29T04:30:05;97438.75;;;26.29;47.64
68476;BME280;55464;48.266;14.188;2023-07-29T04:32:30;97433.75;;;26.33;47.23
68476;BME280;55464;48.266;14.188;2023-07-29T04:34:56;97440.25;;;26.42;47.46
68476;BME280;55464;48.266;14.188;2023-07-29T04:37:21;97438.34;;;26.39;47.12
68476;BME280;55464;48.266;14.188;2023-07-29T04:39:47;97444.50;;;26.47;47.27
68476;BME280;55464;48.266;14.188;2023-07-29T04:42:12;97433.81;;;26.42;47.57
68476;BME280;55464;48.266;14.188;2023-07-29T04:44:37;97454.75;;;26.54;47.35
68476;BME280;55464;48.266;14.188;2023-07-29T04:47:03;97452.13;;;26.59;47.34
68476;BME280;55464;48.266;14.188;2023-07-29T04:49:28;97455.09;;;26.56;47.61
68476;BME280;55464;48.266;14.188;2023-07-29T04:51:54;97451.47;;;26.55;47.39
68476;BME280;55464;48.266;14.188;2023-07-29T04:54:19;97451.63;;;26.52;47.73
68476;BME280;55464;48.266;14.188;2023-07-29T04:56:46;97456.69;;;26.57;47.50
68476;BME280;55464;48.266;14.188;2023-07-29T04:59:11;97461.78;;;26.62;47.33
68476;BME280;55464;48.266;14.188;2023-07-29T05:01:38;97460.22;;;26.48;47.67
68476;BME280;55464;48.266;14.188;2023-07-29T05:04:04;97448.91;;;26.26;48.17
68476;BME280;55464;48.266;14.188;2023-07-29T05:06:29;97454.47;;;26.17;48.11
68476;BME280;55464;48.266;14.188;2023-07-29T05:08:56;97453.97;;;26.31;48.02
68476;BME280;55464;48.266;14.188;2023-07-29T05:11:21;97448.31;;;26.09;48.46
68476;BME280;55464;48.266;14.188;2023-07-29T05:13:47;97447.22;;;25.94;48.98
68476;BME280;55464;48.266;14.188;2023-07-29T05:16:12;97447.06;;;26.10;49.02
68476;BME280;55464;48.266;14.188;2023-07-29T05:18:38;97454.88;;;26.06;49.07
68476;BME280;55464;48.266;14.188;2023-07-29T05:21:03;97448.00;;;25.94;49.87
68476;BME280;55464;48.266;14.188;2023-07-29T05:23:28;97451.63;;;25.95;49.86
68476;BME280;55464;48.266;14.188;2023-07-29T05:25:54;97447.31;;;25.90;49.93
68476;BME280;55464;48.266;14.188;2023-07-29T05:28:19;97443.25;;;26.04;49.48
68476;BME280;55464;48.266;14.188;2023-07-29T05:30:45;97430.97;;;26.20;49.28
68476;BME280;55464;48.266;14.188;2023-07-29T05:33:10;97433.28;;;26.34;49.18
68476;BME280;55464;48.266;14.188;2023-07-29T05:35:36;97427.25;;;26.23;48.99
68476;BME280;55464;48.266;14.188;2023-07-29T05:38:02;97431.41;;;25.96;49.87
68476;BME280;55464;48.266;14.188;2023-07-29T05:40:28;97434.25;;;26.18;49.82
68476;BME280;55464;48.266;14.188;2023-07-29T05:42:54;97439.00;;;26.44;49.20
68476;BME280;55464;48.266;14.188;2023-07-29T05:45:19;97435.09;;;26.63;48.76
68476;BME280;55464;48.266;14.188;2023-07-29T05:47:45;97434.19;;;26.53;49.21
68476;BME280;55464;48.266;14.188;2023-07-29T05:50:10;97434.97;;;26.54;49.15
68476;BME280;55464;48.266;14.188;2023-07-29T05:52:36;97437.28;;;26.24;49.11
68476;BME280;55464;48.266;14.188;2023-07-29T05:55:02;97440.31;;;26.30;49.16
68476;BME280;55464;48.266;14.188;2023-07-29T05:57:27;97438.81;;;26.38;49.17
68476;BME280;55464;48.266;14.188;2023-07-29T05:59:53;97440.03;;;26.59;48.80
68476;BME280;55464;48.266;14.188;2023-07-29T06:02:18;97435.66;;;26.36;49.49
68476;BME280;55464;48.266;14.188;2023-07-29T06:04:44;97441.81;;;26.44;49.29
68476;BME280;55464;48.266;14.188;2023-07-29T06:07:09;97440.63;;;26.54;49.28
68476;BME280;55464;48.266;14.188;2023-07-29T06:09:35;97445.31;;;26.70;49.01
68476;BME280;55464;48.266;14.188;2023-07-29T06:12:00;97438.06;;;26.47;49.62
68476;BME280;55464;48.266;14.188;2023-07-29T06:14:26;97434.97;;;26.54;49.28
68476;BME280;55464;48.266;14.188;2023-07-29T06:16:51;97435.09;;;26.63;49.07
68476;BME280;55464;48.266;14.188;2023-07-29T06:19:18;97436.72;;;26.51;49.26
68476;BME280;55464;48.266;14.188;2023-07-29T06:21:43;97425.72;;;26.53;49.09
68476;BME280;55464;48.266;14.188;2023-07-29T06:24:09;97420.28;;;26.81;48.31
68476;BME280;55464;48.266;14.188;2023-07-29T06:26:34;97416.44;;;26.75;48.45
68476;BME280;55464;48.266;14.188;2023-07-29T06:29:00;97411.25;;;26.73;48.18
68476;BME280;55464;48.266;14.188;2023-07-29T06:31:25;97409.16;;;26.65;48.79
68476;BME280;55464;48.266;14.188;2023-07-29T06:33:50;97407.84;;;26.78;48.64
68476;BME280;55464;48.266;14.188;2023-07-29T06:36:16;97417.03;;;26.92;48.27
68476;BME280;55464;48.266;14.188;2023-07-29T06:38:41;97412.31;;;26.98;48.40
68476;BME280;55464;48.266;14.188;2023-07-29T06:41:07;97424.88;;;26.88;48.32
68476;BME280;55464;48.266;14.188;2023-07-29T06:43:32;97417.06;;;27.01;47.49
68476;BME280;55464;48.266;14.188;2023-07-29T06:45:58;97419.00;;;27.13;47.64
68476;BME280;55464;48.266;14.188;2023-07-29T06:48:23;97410.75;;;26.97;48.10
68476;BME280;55464;48.266;14.188;2023-07-29T06:50:49;97411.81;;;26.90;48.42
68476;BME280;55464;48.266;14.188;2023-07-29T06:53:17;97427.34;;;26.86;47.76
68476;BME280;55464;48.266;14.188;2023-07-29T06:55:44;97421.47;;;26.71;48.05
68476;BME280;55464;48.266;14.188;2023-07-29T06:58:10;97406.50;;;26.92;48.19
68476;BME280;55464;48.266;14.188;2023-07-29T07:00:35;97402.59;;;26.99;48.31
68476;BME280;55464;48.266;14.188;2023-07-29T07:03:01;97409.88;;;27.09;47.47
68476;BME280;55464;48.266;14.188;2023-07-29T07:05:26;97400.13;;;27.10;47.64
68476;BME280;55464;48.266;14.188;2023-07-29T07:07:51;97399.66;;;27.12;47.42
68476;BME280;55464;48.266;14.188;2023-07-29T07:10:17;97412.22;;;27.02;47.60
68476;BME280;55464;48.266;14.188;2023-07-29T07:12:43;97422.75;;;27.10;47.33
68476;BME280;55464;48.266;14.188;2023-07-29T07:15:08;97414.09;;;27.05;47.41
68476;BME280;55464;48.266;14.188;2023-07-29T07:17:34;97399.34;;;27.10;47.82
68476;BME280;55464;48.266;14.188;2023-07-29T07:19:59;97395.59;;;27.13;47.38
68476;BME280;55464;48.266;14.188;2023-07-29T07:22:25;97404.03;;;27.35;46.75
68476;BME280;55464;48.266;14.188;2023-07-29T07:24:50;97404.03;;;27.35;47.28
68476;BME280;55464;48.266;14.188;2023-07-29T07:27:16;97395.72;;;27.09;47.62
68476;BME280;55464;48.266;14.188;2023-07-29T07:29:41;97402.53;;;27.21;47.38
68476;BME280;55464;48.266;14.188;2023-07-29T07:32:07;97390.06;;;27.50;46.60
68476;BME280;55464;48.266;14.188;2023-07-29T07:34:32;97388.97;;;27.57;47.08
68476;BME280;55464;48.266;14.188;2023-07-29T07:36:58;97383.94;;;27.61;46.77
68476;BME280;55464;48.266;14.188;2023-07-29T07:39:24;97394.00;;;27.62;46.54
68476;BME280;55464;48.266;14.188;2023-07-29T07:41:49;97394.63;;;27.66;46.88
68476;BME280;55464;48.266;14.188;2023-07-29T07:44:15;97389.13;;;27.71;47.00
68476;BME280;55464;48.266;14.188;2023-07-29T07:46:42;97400.91;;;27.51;46.68
68476;BME280;55464;48.266;14.188;2023-07-29T07:49:08;97393.50;;;27.54;46.87
68476;BME280;55464;48.266;14.188;2023-07-29T07:51:33;97382.38;;;27.69;47.31
68476;BME280;55464;48.266;14.188;2023-07-29T07:53:59;97376.25;;;27.80;46.96
68476;BME280;55464;48.266;14.188;2023-07-29T07:56:24;97372.34;;;27.86;46.44
68476;BME280;55464;48.266;14.188;2023-07-29T07:58:49;97372.03;;;27.94;46.15
68476;BME280;55464;48.266;14.188;2023-07-29T08:01:15;97369.81;;;27.79;45.93
68476;BME280;55464;48.266;14.188;2023-07-29T08:03:40;97374.09;;;27.93;45.95
68476;BME280;55464;48.266;14.188;2023-07-29T08:06:05;97369.03;;;27.88;46.03
68476;BME280;55464;48.266;14.188;2023-07-29T08:08:31;97372.97;;;28.00;46.35
68476;BME280;55464;48.266;14.188;2023-07-29T08:10:57;97374.41;;;27.95;45.68
68476;BME280;55464;48.266;14.188;2023-07-29T08:13:23;97384.75;;;27.89;45.47
68476;BME280;55464;48.266;14.188;2023-07-29T08:15:50;97367.91;;;27.67;45.68
68476;BME280;55464;48.266;14.188;2023-07-29T08:18:17;97378.28;;;27.51;45.75
68476;BME280;55464;48.266;14.188;2023-07-29T08:20:58;97373.69;;;27.54;45.95
68476;BME280;55464;48.266;14.188;2023-07-29T08:23:25;97374.97;;;27.53;46.36
68476;BME280;55464;48.266;14.188;2023-07-29T08:25:52;97378.28;;;27.51;46.34
68476;BME280;55464;48.266;14.188;2023-07-29T08:28:18;97371.53;;;27.67;45.94
68476;BME280;55464;48.266;14.188;2023-07-29T08:30:43;97373.56;;;27.85;46.21
68476;BME280;55464;48.266;14.188;2023-07-29T08:33:09;97375.00;;;27.81;46.63
68476;BME280;55464;48.266;14.188;2023-07-29T08:35:34;97379.72;;;27.75;46.61
68476;BME280;55464;48.266;14.188;2023-07-29T08:38:00;97362.88;;;27.80;46.52
68476;BME280;55464;48.266;14.188;2023-07-29T08:40:27;97360.41;;;27.91;46.66
68476;BME280;55464;48.266;14.188;2023-07-29T08:42:56;97373.31;;;28.02;46.49
68476;BME280;55464;48.266;14.188;2023-07-29T08:45:23;97367.91;;;27.76;46.71
68476;BME280;55464;48.266;14.188;2023-07-29T08:47:50;97360.34;;;27.64;46.94
68476;BME280;55464;48.266;14.188;2023-07-29T08:50:21;97374.66;;;27.69;46.62
68476;BME280;55464;48.266;14.188;2023-07-29T08:52:47;97372.34;;;27.77;47.01
68476;BME280;55464;48.266;14.188;2023-07-29T08:55:13;97368.72;;;27.86;47.21
68476;BME280;55464;48.266;14.188;2023-07-29T08:57:39;97361.47;;;27.85;46.90
68476;BME280;55464;48.266;14.188;2023-07-29T09:00:05;97356.75;;;27.91;46.56
68476;BME280;55464;48.266;14.188;2023-07-29T09:02:30;97355.69;;;28.07;46.57
68476;BME280;55464;48.266;14.188;2023-07-29T09:04:56;97362.09;;;28.26;46.40
68476;BME280;55464;48.266;14.188;2023-07-29T09:07:21;97355.03;;;28.21;47.15
68476;BME280;55464;48.266;14.188;2023-07-29T09:09:48;97356.31;;;28.02;46.91
68476;BME280;55464;48.266;14.188;2023-07-29T09:12:13;97362.75;;;28.12;47.06
68476;BME280;55464;48.266;14.188;2023-07-29T09:14:39;97358.19;;;28.05;46.89
68476;BME280;55464;48.266;14.188;2023-07-29T09:17:07;97363.84;;;28.23;46.59
68476;BME280;55464;48.266;14.188;2023-07-29T09:19:33;97363.78;;;28.42;46.79
68476;BME280;55464;48.266;14.188;2023-07-29T09:21:59;97362.72;;;28.30;47.02
68476;BME280;55464;48.266;14.188;2023-07-29T09:24:25;97361.13;;;28.38;46.41
68476;BME280;55464;48.266;14.188;2023-07-29T09:26:54;97368.56;;;28.26;46.68
68476;BME280;55464;48.266;14.188;2023-07-29T09:29:23;97366.66;;;28.33;46.80
68476;BME280;55464;48.266;14.188;2023-07-29T09:31:52;97372.94;;;28.46;46.39
68476;BME280;55464;48.266;14.188;2023-07-29T09:34:18;97382.06;;;28.41;46.37
68476;BME280;55464;48.266;14.188;2023-07-29T09:36:43;97389.81;;;28.40;46.87
68476;BME280;55464;48.266;14.188;2023-07-29T09:39:12;97396.88;;;28.54;47.13
68476;BME280;55464;48.266;14.188;2023-07-29T09:41:40;97393.28;;;28.35;46.29
68476;BME280;55464;48.266;14.188;2023-07-29T09:44:06;97396.38;;;28.46;47.26
68476;BME280;55464;48.266;14.188;2023-07-29T09:46:36;97411.69;;;28.49;46.19
68476;BME280;55464;48.266;14.188;2023-07-29T09:49:03;97417.19;;;28.53;46.29
68476;BME280;55464;48.266;14.188;2023-07-29T09:51:29;97422.38;;;28.36;46.96
68476;BME280;55464;48.266;14.188;2023-07-29T09:53:55;97412.94;;;28.39;46.17
68476;BME280;55464;48.266;14.188;2023-07-29T09:56:24;97420.81;;;28.44;46.25
68476;BME280;55464;48.266;14.188;2023-07-29T09:58:51;97427.25;;;28.44;45.70
68476;BME280;55464;48.266;14.188;2023-07-29T10:01:17;97425.41;;;28.23;46.14
68476;BME280;55464;48.266;14.188;2023-07-29T10:03:44;97429.78;;;28.42;46.70
68476;BME280;55464;48.266;14.188;2023-07-29T10:06:10;97432.00;;;28.57;47.67
68476;BME280;55464;48.266;14.188;2023-07-29T10:08:37;97440.47;;;28.75;47.85
68476;BME280;55464;48.266;14.188;2023-07-29T10:11:05;97443.47;;;28.53;48.24
68476;BME280;55464;48.266;14.188;2023-07-29T10:13:32;97431.53;;;28.21;49.23
68476;BME280;55464;48.266;14.188;2023-07-29T10:15:58;97431.50;;;28.40;48.86
68476;BME280;55464;48.266;14.188;2023-07-29T10:18:24;97419.06;;;28.56;49.23
68476;BME280;55464;48.266;14.188;2023-07-29T10:20:51;97422.78;;;28.80;49.20
68476;BME280;55464;48.266;14.188;2023-07-29T10:23:18;97437.44;;;28.88;49.96
68476;BME280;55464;48.266;14.188;2023-07-29T10:25:50;97432.25;;;28.87;49.00
68476;BME280;55464;48.266;14.188;2023-07-29T10:28:20;97434.44;;;28.92;49.34
68476;BME280;55464;48.266;14.188;2023-07-29T10:30:51;97428.63;;;28.86;49.10
68476;BME280;55464;48.266;14.188;2023-07-29T10:33:17;97414.72;;;28.97;49.08
68476;BME280;55464;48.266;14.188;2023-07-29T10:35:42;97428.41;;;28.99;48.94
68476;BME280;55464;48.266;14.188;2023-07-29T10:38:08;97411.06;;;29.06;48.97
68476;BME280;55464;48.266;14.188;2023-07-29T10:40:56;97418.66;;;28.91;49.41
68476;BME280;55464;48.266;14.188;2023-07-29T10:43:26;97412.75;;;28.61;49.03
68476;BME280;55464;48.266;14.188;2023-07-29T10:45:52;97413.97;;;28.88;48.54
68476;BME280;55464;48.266;14.188;2023-07-29T10:48:41;97409.81;;;29.07;48.73
68476;BME280;55464;48.266;14.188;2023-07-29T10:54:12;97400.38;;;29.34;48.68
68476;BME280;55464;48.266;14.188;2023-07-29T10:56:48;97394.50;;;29.14;48.21
68476;BME280;55464;48.266;14.188;2023-07-29T11:01:51;97403.09;;;29.29;47.55
68476;BME280;55464;48.266;14.188;2023-07-29T11:15:01;97391.41;;;29.36;48.10
68476;BME280;55464;48.266;14.188;2023-07-29T11:17:30;97390.00;;;29.31;47.16
68476;BME280;55464;48.266;14.188;2023-07-29T11:20:00;97384.19;;;29.26;46.82
68476;BME280;55464;48.266;14.188;2023-07-29T11:22:26;97382.09;;;29.35;47.80
68476;BME280;55464;48.266;14.188;2023-07-29T11:24:51;97378.16;;;29.33;47.49
68476;BME280;55464;48.266;14.188;2023-07-29T11:27:16;97379.97;;;29.21;47.09
68476;BME280;55464;48.266;14.188;2023-07-29T11:29:42;97375.28;;;29.09;46.63
68476;BME280;55464;48.266;14.188;2023-07-29T11:32:08;97371.47;;;29.21;46.23
68476;BME280;55464;48.266;14.188;2023-07-29T11:34:34;97375.50;;;29.29;46.75
68476;BME280;55464;48.266;14.188;2023-07-29T11:37:00;97358.22;;;29.18;46.65
68476;BME280;55464;48.266;14.188;2023-07-29T11:39:25;97377.63;;;29.19;46.46
68476;BME280;55464;48.266;14.188;2023-07-29T11:41:50;97360.59;;;29.10;46.17
68476;BME280;55464;48.266;14.188;2023-07-29T11:44:19;97365.63;;;29.15;46.93
68476;BME280;55464;48.266;14.188;2023-07-29T11:46:44;97362.78;;;29.25;46.69
68476;BME280;55464;48.266;14.188;2023-07-29T11:49:10;97360.66;;;29.34;46.76
68476;BME280;55464;48.266;14.188;2023-07-29T11:51:38;97357.09;;;29.49;46.83
68476;BME280;55464;48.266;14.188;2023-07-29T11:54:04;97353.41;;;29.57;46.68
68476;BME280;55464;48.266;14.188;2023-07-29T11:56:30;97364.75;;;29.57;46.63
68476;BME280;55464;48.266;14.188;2023-07-29T11:58:56;97363.22;;;29.56;46.63
68476;BME280;55464;48.266;14.188;2023-07-29T12:01:22;97363.13;;;29.66;45.87
68476;BME280;55464;48.266;14.188;2023-07-29T12:03:48;97355.06;;;29.49;44.31
68476;BME280;55464;48.266;14.188;2023-07-29T12:06:15;97346.94;;;29.57;44.99
68476;BME280;55464;48.266;14.188;2023-07-29T12:08:42;97352.22;;;29.49;46.30
68476;BME280;55464;48.266;14.188;2023-07-29T12:11:10;97340.81;;;29.73;46.76
68476;BME280;55464;48.266;14.188;2023-07-29T12:13:36;97338.88;;;29.65;43.93
68476;BME280;55464;48.266;14.188;2023-07-29T12:16:02;97339.81;;;29.62;44.06
68476;BME280;55464;48.266;14.188;2023-07-29T12:18:32;97332.09;;;29.62;44.17
68476;BME280;55464;48.266;14.188;2023-07-29T12:20:57;97323.56;;;29.86;43.95
68476;BME280;55464;48.266;14.188;2023-07-29T12:23:26;97325.44;;;29.89;44.32
68476;BME280;55464;48.266;14.188;2023-07-29T12:25:57;97332.03;;;30.10;44.59
68476;BME280;55464;48.266;14.188;2023-07-29T12:28:22;97323.88;;;30.03;43.65
68476;BME280;55464;48.266;14.188;2023-07-29T12:30:52;97315.94;;;30.22;44.38
68476;BME280;55464;48.266;14.188;2023-07-29T12:33:32;97312.44;;;30.27;43.18
68476;BME280;55464;48.266;14.188;2023-07-29T12:35:58;97298.03;;;30.16;42.49
68476;BME280;55464;48.266;14.188;2023-07-29T12:38:26;97280.59;;;30.23;42.37
68476;BME280;55464;48.266;14.188;2023-07-29T12:40:51;97290.91;;;30.35;42.36
68476;BME280;55464;48.266;14.188;2023-07-29T12:43:17;97284.91;;;30.33;43.08
68476;BME280;55464;48.266;14.188;2023-07-29T12:45:42;97288.84;;;30.36;42.07
68476;BME280;55464;48.266;14.188;2023-07-29T12:48:09;97281.69;;;30.41;42.04
68476;BME280;55464;48.266;14.188;2023-07-29T12:50:35;97291.56;;;30.15;41.55
68476;BME280;55464;48.266;14.188;2023-07-29T12:53:00;97275.88;;;30.20;42.11
68476;BME280;55464;48.266;14.188;2023-07-29T12:55:25;97285.09;;;30.15;41.96
68476;BME280;55464;48.266;14.188;2023-07-29T12:57:51;97278.22;;;30.22;42.22
68476;BME280;55464;48.266;14.188;2023-07-29T13:00:17;97298.50;;;30.14;41.78
68476;BME280;55464;48.266;14.188;2023-07-29T13:02:42;97294.72;;;30.17;42.56
68476;BME280;55464;48.266;14.188;2023-07-29T13:05:11;97292.22;;;29.95;41.23
68476;BME280;55464;48.266;14.188;2023-07-29T13:07:39;97290.69;;;29.94;41.94